createdAt,value
2022-11-17T00:00:44.538Z,98953.34
2022-11-17T00:03:16.199Z,98932.56
2022-11-17T00:06:03.085Z,98935.13
2022-11-17T00:08:29.982Z,98929.06
2022-11-17T00:11:02.106Z,98934.28
2022-11-17T00:13:47.944Z,98921.28
2022-11-17T00:16:16.888Z,98942.94
2022-11-17T00:19:04.818Z,98941.25
2022-11-17T00:21:32.046Z,98929.97
2022-11-17T00:24:00.561Z,98929.06
2022-11-17T00:26:33.055Z,98929.94
2022-11-17T00:29:10.200Z,98936.03
2022-11-17T00:31:56.911Z,98946.44
2022-11-17T00:34:24.041Z,98935.13
2022-11-17T00:36:54.528Z,98942.06
2022-11-17T00:39:24.122Z,98923.88
2022-11-17T00:41:51.351Z,98927.31
2022-11-17T00:44:18.536Z,98944.69
2022-11-17T00:46:46.300Z,98934.28
2022-11-17T00:49:14.905Z,98931.66
2022-11-17T00:51:42.297Z,98932.50
2022-11-17T00:54:13.199Z,98929.91
2022-11-17T00:56:42.319Z,98928.19
2022-11-17T00:59:09.714Z,98929.06
2022-11-17T01:01:40.042Z,98921.22
2022-11-17T01:04:07.917Z,98935.13
2022-11-17T01:06:40.838Z,98935.13
2022-11-17T01:09:13.631Z,98932.50
2022-11-17T01:11:41.670Z,98938.56
2022-11-17T01:14:12.851Z,98927.31
2022-11-17T01:16:40.055Z,98928.19
2022-11-17T01:19:07.326Z,98927.28
2022-11-17T01:21:34.501Z,98925.56
2022-11-17T01:24:02.329Z,98922.09
2022-11-17T01:26:34.781Z,98929.06
2022-11-17T01:29:03.633Z,98925.63
2022-11-17T01:31:36.197Z,98926.47
2022-11-17T01:34:03.689Z,98913.47
2022-11-17T01:36:51.474Z,98917.78
2022-11-17T01:39:18.428Z,98916.06
2022-11-17T01:41:45.757Z,98923.88
2022-11-17T01:44:50.026Z,98918.66
2022-11-17T01:47:35.253Z,98911.75
2022-11-17T01:50:31.171Z,98905.69
2022-11-17T01:53:02.250Z,98903.94
2022-11-17T01:55:41.750Z,98912.63
2022-11-17T01:58:30.400Z,98909.16
2022-11-17T02:00:58.165Z,98913.50
2022-11-17T02:03:27.244Z,98909.19
2022-11-17T02:06:10.894Z,98900.50
2022-11-17T02:08:40.413Z,98904.00
2022-11-17T02:11:14.280Z,98910.94
2022-11-17T02:13:41.636Z,98907.47
2022-11-17T02:16:16.056Z,98915.28
2022-11-17T02:18:44.495Z,98909.22
2022-11-17T02:21:48.437Z,98917.03
2022-11-17T02:24:27.170Z,98910.13
2022-11-17T02:27:15.470Z,98894.53
2022-11-17T02:29:56.761Z,98904.03
2022-11-17T02:32:33.369Z,98904.06
2022-11-17T02:35:17.144Z,98903.19
2022-11-17T02:38:12.542Z,98894.53
2022-11-17T02:40:48.433Z,98904.06
2022-11-17T02:43:39.075Z,98902.34
2022-11-17T02:46:09.477Z,98896.25
2022-11-17T02:48:45.116Z,98891.06
2022-11-17T02:51:22.808Z,98888.47
2022-11-17T02:53:53.410Z,98880.63
2022-11-17T02:56:20.249Z,98893.69
2022-11-17T02:58:52.249Z,98886.75
2022-11-17T03:01:24.761Z,98889.34
2022-11-17T03:04:06.345Z,98885.00
2022-11-17T03:06:48.940Z,98885.00
2022-11-17T03:09:21.516Z,98891.03
2022-11-17T03:12:06.396Z,98884.09
2022-11-17T03:14:53.347Z,98883.25
2022-11-17T03:17:30.855Z,98893.69
2022-11-17T03:20:04.849Z,98890.22
2022-11-17T03:22:41.839Z,98896.25
2022-11-17T03:25:15.074Z,98886.72
2022-11-17T03:27:47.291Z,98891.09
2022-11-17T03:30:15.135Z,98894.53
2022-11-17T03:32:47.171Z,98887.63
2022-11-17T03:35:19.692Z,98896.25
2022-11-17T03:37:53.632Z,98903.22
2022-11-17T03:40:25.875Z,98891.06
2022-11-17T03:42:57.728Z,98894.53
2022-11-17T03:45:30.927Z,98900.63
2022-11-17T03:48:08.804Z,98904.06
2022-11-17T03:50:41.051Z,98904.03
2022-11-17T03:53:08.160Z,98898.81
2022-11-17T03:56:02.990Z,98915.34
2022-11-17T03:58:34.165Z,98897.09
2022-11-17T04:01:03.677Z,98905.75
2022-11-17T04:03:34.818Z,98911.84
2022-11-17T04:06:04.129Z,98919.66
2022-11-17T04:08:31.910Z,98911.00
2022-11-17T04:11:17.115Z,98916.22
2022-11-17T04:14:02.592Z,98924.91
2022-11-17T04:16:29.262Z,98917.13
2022-11-17T04:18:58.889Z,98915.38
2022-11-17T04:21:26.035Z,98920.56
2022-11-17T04:23:52.800Z,98911.88
2022-11-17T04:26:38.406Z,98911.91
2022-11-17T04:29:05.046Z,98908.44
2022-11-17T04:31:32.160Z,98899.81
2022-11-17T04:34:04.239Z,98900.63
2022-11-17T04:36:34.914Z,98895.44
2022-11-17T04:39:01.930Z,98898.94
2022-11-17T04:41:48.133Z,98896.34
2022-11-17T04:44:16.937Z,98894.63
2022-11-17T04:46:44.764Z,98899.81
2022-11-17T04:49:13.767Z,98905.88
2022-11-17T04:51:41.138Z,98902.41
2022-11-17T04:54:09.416Z,98904.16
2022-11-17T04:56:36.733Z,98901.53
2022-11-17T04:59:04.299Z,98899.81
2022-11-17T05:01:31.807Z,98898.94
2022-11-17T05:04:01.410Z,98900.63
2022-11-17T05:06:34.006Z,98905.84
2022-11-17T05:09:03.780Z,98909.38
2022-11-17T05:11:49.690Z,98911.03
2022-11-17T05:14:21.076Z,98904.13
2022-11-17T05:17:10.889Z,98914.53
2022-11-17T05:19:40.770Z,98900.69
2022-11-17T05:22:28.764Z,98905.03
2022-11-17T05:24:56.712Z,98911.97
2022-11-17T05:27:23.940Z,98912.84
2022-11-17T05:29:50.686Z,98911.06
2022-11-17T05:32:17.977Z,98915.41
2022-11-17T05:34:44.585Z,98922.34
2022-11-17T05:37:12.533Z,98918.81
2022-11-17T05:39:39.184Z,98917.06
2022-11-17T05:42:06.246Z,98922.28
2022-11-17T05:44:32.888Z,98917.09
2022-11-17T05:46:59.593Z,98924.03
2022-11-17T05:49:26.548Z,98921.44
2022-11-17T05:51:53.373Z,98916.19
2022-11-17T05:54:20.632Z,98916.19
2022-11-17T05:56:56.569Z,98917.94
2022-11-17T05:59:43.963Z,98910.13
2022-11-17T06:02:17.008Z,98916.16
2022-11-17T06:04:44.446Z,98910.97
2022-11-17T06:07:11.273Z,98913.59
2022-11-17T06:09:41.795Z,98911.84
2022-11-17T06:12:10.228Z,98923.09
2022-11-17T06:14:39.268Z,98910.09
2022-11-17T06:17:23.308Z,98923.97
2022-11-17T06:19:58.278Z,98917.03
2022-11-17T06:22:26.873Z,98911.81
2022-11-17T06:24:54.523Z,98920.44
2022-11-17T06:27:21.384Z,98908.34
2022-11-17T06:29:49.468Z,98913.56
2022-11-17T06:32:19.028Z,98906.63
2022-11-17T06:34:53.833Z,98911.84
2022-11-17T06:37:22.644Z,98910.16
2022-11-17T06:39:49.392Z,98909.28
2022-11-17T06:42:16.152Z,98923.19
2022-11-17T06:44:43.331Z,98919.72
2022-11-17T06:47:12.449Z,98917.13
2022-11-17T06:49:39.266Z,98913.66
2022-11-17T06:52:05.892Z,98921.50
2022-11-17T06:54:32.532Z,98921.50
2022-11-17T06:57:00.569Z,98938.03
2022-11-17T06:59:27.164Z,98929.31
2022-11-17T07:01:54.932Z,98935.41
2022-11-17T07:04:21.535Z,98931.06
2022-11-17T07:06:48.227Z,98932.84
2022-11-17T07:09:14.868Z,98935.44
2022-11-17T07:11:42.452Z,98957.97
2022-11-17T07:14:09.065Z,98944.13
2022-11-17T07:16:35.721Z,98935.50
2022-11-17T07:19:03.909Z,98932.88
2022-11-17T07:21:30.596Z,98928.56
2022-11-17T07:23:57.947Z,98925.97
2022-11-17T07:26:24.542Z,98952.00
2022-11-17T07:28:51.554Z,98932.06
2022-11-17T07:31:18.202Z,98930.34
2022-11-17T07:33:44.832Z,98931.22
2022-11-17T07:36:14.674Z,98939.00
2022-11-17T07:38:41.595Z,98919.94
2022-11-17T07:41:10.254Z,98938.38
2022-11-17T07:43:36.992Z,98931.31
2022-11-17T07:46:14.474Z,98936.44
2022-11-17T07:48:43.092Z,98932.06
2022-11-17T07:51:10.136Z,98935.50
2022-11-17T07:53:36.904Z,98929.44
2022-11-17T07:56:08.842Z,98932.91
2022-11-17T07:58:36.375Z,98941.56
2022-11-17T08:01:07.887Z,98931.16
2022-11-17T08:03:34.667Z,98938.94
2022-11-17T08:06:03.055Z,98936.38
2022-11-17T08:08:31.306Z,98930.31
2022-11-17T08:11:02.823Z,98926.00
2022-11-17T08:13:29.497Z,98933.81
2022-11-17T08:15:57.385Z,98934.72
2022-11-17T08:18:24.375Z,98934.69
2022-11-17T08:20:51.040Z,98932.97
2022-11-17T08:23:23.440Z,98926.84
2022-11-17T08:25:50.381Z,98947.66
2022-11-17T08:28:17.033Z,98933.78
2022-11-17T08:30:44.713Z,98935.50
2022-11-17T08:33:11.367Z,98941.59
2022-11-17T08:35:38.293Z,98938.16
2022-11-17T08:38:05.283Z,98962.41
2022-11-17T08:40:31.913Z,98939.91
2022-11-17T08:43:01.414Z,98951.16
2022-11-17T08:45:28.616Z,98947.66
2022-11-17T08:47:57.105Z,98970.22
2022-11-17T08:50:23.890Z,98945.94
2022-11-17T08:52:52.235Z,98934.63
2022-11-17T08:55:19.155Z,98940.69
2022-11-17T08:57:48.778Z,98964.97
2022-11-17T09:00:16.521Z,98967.59
2022-11-17T09:02:43.154Z,98964.09
2022-11-17T09:05:09.794Z,98945.03
2022-11-17T09:07:36.534Z,98956.28
2022-11-17T09:10:05.352Z,98958.06
2022-11-17T09:12:32.493Z,98962.41
2022-11-17T09:14:59.149Z,98962.41
2022-11-17T09:17:25.903Z,98969.31
2022-11-17T09:19:53.976Z,98971.88
2022-11-17T09:22:21.306Z,98964.09
2022-11-17T09:24:49.230Z,98963.22
2022-11-17T09:27:15.941Z,98979.75
2022-11-17T09:29:42.542Z,98966.75
2022-11-17T09:32:09.707Z,98952.88
2022-11-17T09:34:36.430Z,98945.97
2022-11-17T09:37:03.088Z,98967.66
2022-11-17T09:39:29.674Z,98950.31
2022-11-17T09:41:57.539Z,98946.00
2022-11-17T09:44:45.940Z,98944.34
2022-11-17T09:47:38.466Z,98957.28
2022-11-17T09:50:43.672Z,98953.78
2022-11-17T09:53:22.738Z,98950.34
2022-11-17T09:55:56.098Z,98955.50
2022-11-17T09:58:25.490Z,98958.06
2022-11-17T10:00:53.917Z,98948.53
2022-11-17T10:03:22.243Z,98948.56
2022-11-17T10:05:49.609Z,98941.56
2022-11-17T10:08:54.799Z,98945.88
2022-11-17T10:11:33.827Z,98938.94
2022-11-17T10:14:12.108Z,98950.22
2022-11-17T10:16:42.124Z,98938.94
2022-11-17T10:19:24.387Z,98958.00
2022-11-17T10:22:07.194Z,98962.34
2022-11-17T10:24:48.148Z,98953.66
2022-11-17T10:27:22.451Z,98946.75
2022-11-17T10:29:59.444Z,98945.00
2022-11-17T10:32:30.955Z,98958.00
2022-11-17T10:35:14.422Z,98948.50
2022-11-17T10:37:51.778Z,98947.66
2022-11-17T10:40:25.914Z,98944.28
2022-11-17T10:43:35.318Z,98950.34
2022-11-17T10:46:12.801Z,98933.00
2022-11-17T10:48:40.900Z,98932.16
2022-11-17T10:51:23.339Z,98934.75
2022-11-17T10:54:06.964Z,98937.38
2022-11-17T10:56:41.582Z,98935.66
2022-11-17T10:59:08.247Z,98946.09
2022-11-17T11:01:37.606Z,98934.78
2022-11-17T11:04:07.646Z,98932.25
2022-11-17T11:06:35.667Z,98931.38
2022-11-17T11:09:10.429Z,98954.75
2022-11-17T11:11:47.474Z,98952.09
2022-11-17T11:14:29.125Z,98941.66
2022-11-17T11:16:57.401Z,98933.00
2022-11-17T11:19:24.196Z,98943.44
2022-11-17T11:22:21.796Z,98933.00
2022-11-17T11:25:33.248Z,98939.94
2022-11-17T11:28:32.447Z,98945.13
2022-11-17T11:31:24.407Z,98955.50
2022-11-17T11:34:19.015Z,98942.44
2022-11-17T11:36:57.006Z,98956.31
2022-11-17T11:39:32.914Z,98951.91
2022-11-17T11:42:14.530Z,98954.53
2022-11-17T11:44:59.971Z,98937.16
2022-11-17T11:47:33.884Z,98932.81
2022-11-17T11:50:09.469Z,98941.44
2022-11-17T11:52:41.499Z,98938.88
2022-11-17T11:55:22.942Z,98944.94
2022-11-17T11:57:56.848Z,98949.28
2022-11-17T12:00:23.629Z,98937.16
2022-11-17T12:03:05.216Z,98954.47
2022-11-17T12:05:53.189Z,98938.06
2022-11-17T12:08:49.856Z,98935.41
2022-11-17T12:11:35.688Z,98928.47
2022-11-17T12:14:06.152Z,98935.41
2022-11-17T12:16:36.976Z,98949.47
2022-11-17T12:20:09.365Z,98936.38
2022-11-17T12:22:38.354Z,98958.91
2022-11-17T12:25:29.188Z,98948.53
2022-11-17T12:27:56.715Z,98936.41
2022-11-17T12:30:29.188Z,98944.25
2022-11-17T12:33:08.391Z,98939.91
2022-11-17T12:35:37.336Z,98951.16
2022-11-17T12:38:16.587Z,98958.91
2022-11-17T13:31:05.996Z,98938.56
2022-11-17T13:39:27.506Z,98905.50
2022-11-17T13:41:56.042Z,98915.88
2022-11-17T13:44:25.497Z,98910.63
2022-11-17T13:46:52.384Z,98913.28
2022-11-17T13:49:39.893Z,98914.97
2022-11-17T13:52:34.604Z,98915.84
2022-11-17T13:55:10.618Z,98895.00
2022-11-17T13:57:37.601Z,98894.13
2022-11-17T14:00:04.959Z,98894.13
2022-11-17T14:02:31.897Z,98899.34
2022-11-17T14:05:23.266Z,98895.91
2022-11-17T14:07:51.154Z,98898.47
2022-11-17T14:10:34.097Z,98892.41
2022-11-17T14:13:01.746Z,98907.09
2022-11-17T14:15:35.171Z,98883.75
2022-11-17T14:18:15.489Z,98884.59
2022-11-17T14:20:42.509Z,98898.44
2022-11-17T14:23:09.140Z,98888.88
2022-11-17T14:25:39.328Z,98900.09
2022-11-17T14:28:14.604Z,98909.63
2022-11-17T14:30:41.383Z,98889.69
2022-11-17T14:33:13.360Z,98887.91
2022-11-17T14:35:41.063Z,98883.56
2022-11-17T15:08:16.997Z,98888.50
2022-11-17T15:10:56.651Z,98899.75
2022-11-17T15:13:23.252Z,98899.78
2022-11-17T15:15:49.871Z,98905.84
2022-11-17T15:18:16.412Z,98912.75
2022-11-17T15:20:44.841Z,98901.50
2022-11-17T15:23:12.549Z,98908.41
2022-11-17T15:25:39.301Z,98907.50
2022-11-17T15:28:07.369Z,98903.19
2022-11-17T15:30:33.973Z,98894.56
2022-11-17T15:33:01.717Z,98904.13
2022-11-17T15:35:32.847Z,98897.19
2022-11-17T15:37:59.452Z,98905.84
2022-11-17T15:40:26.128Z,98897.19
2022-11-17T15:42:53.823Z,98901.56
2022-11-17T15:45:20.427Z,98908.47
2022-11-17T15:47:47.087Z,98895.44
2022-11-17T15:50:13.744Z,98895.31
2022-11-17T15:53:03.154Z,98892.66
2022-11-17T15:55:30.194Z,98896.94
2022-11-17T15:57:56.804Z,98902.88
2022-11-17T16:00:23.410Z,98904.59
2022-11-17T16:02:53.234Z,98892.41
2022-11-17T16:05:23.959Z,98897.59
2022-11-17T16:07:50.597Z,98894.06
2022-11-17T16:10:17.482Z,98892.38
2022-11-17T16:12:44.248Z,98896.69
2022-11-17T16:15:11.028Z,98890.63
2022-11-17T16:17:37.791Z,98879.34
2022-11-17T16:20:04.836Z,98877.59
2022-11-17T16:22:31.518Z,98866.28
2022-11-17T16:24:58.194Z,98874.94
2022-11-17T16:27:24.922Z,98880.13
2022-11-17T16:29:51.613Z,98880.94
2022-11-17T16:32:18.184Z,98874.94
2022-11-17T16:34:49.141Z,98883.56
2022-11-17T16:37:16.298Z,98880.16
2022-11-17T16:39:46.929Z,98898.25
2022-11-17T16:42:13.593Z,98896.53
2022-11-17T16:44:40.364Z,98892.22
2022-11-17T16:47:07.191Z,98902.59
2022-11-17T16:49:35.937Z,98897.34
2022-11-17T16:52:02.648Z,98892.25
2022-11-17T16:54:31.950Z,98887.03
2022-11-17T16:56:58.731Z,98886.16
2022-11-17T17:08:01.703Z,98884.44
2022-11-17T17:10:28.361Z,98893.03
2022-11-17T17:13:03.242Z,98887.94
2022-11-17T17:15:30.999Z,98887.03
2022-11-17T17:18:00.044Z,98872.31
2022-11-17T17:20:26.879Z,98887.91
2022-11-17T17:22:56.856Z,98876.63
2022-11-17T17:25:27.739Z,98878.41
2022-11-17T17:27:54.921Z,98887.88
2022-11-17T17:30:23.015Z,98886.19
2022-11-17T17:32:49.561Z,98890.44
2022-11-17T17:35:17.607Z,98885.31
2022-11-17T17:37:45.830Z,98892.25
2022-11-17T17:40:12.487Z,98896.56
2022-11-17T17:42:42.334Z,98909.63
2022-11-17T17:45:14.592Z,98904.41
2022-11-17T17:47:42.362Z,98899.16
2022-11-17T17:50:09.423Z,98903.50
2022-11-17T17:52:36.240Z,98909.59
2022-11-17T17:55:04.382Z,98906.09
2022-11-17T17:57:33.896Z,98904.38
2022-11-17T18:00:01.363Z,98904.41
2022-11-17T18:02:37.688Z,98903.53
2022-11-17T18:05:04.754Z,98904.41
2022-11-17T18:07:31.486Z,98899.19
2022-11-17T18:09:58.181Z,98900.03
2022-11-17T18:12:25.289Z,98899.19
2022-11-17T18:14:52.095Z,98901.75
2022-11-17T18:17:19.658Z,98908.69
2022-11-17T18:19:49.769Z,98902.66
2022-11-17T18:22:17.160Z,98905.19
2022-11-17T18:24:43.790Z,98906.09
2022-11-17T18:27:10.632Z,98898.25
2022-11-17T18:29:37.260Z,98890.50
2022-11-17T18:32:04.118Z,98884.44
2022-11-17T18:34:30.755Z,98889.59
2022-11-17T18:36:57.351Z,98881.84
2022-11-17T18:39:24.641Z,98887.81
2022-11-17T18:41:51.282Z,98882.59
2022-11-17T18:44:21.394Z,98874.81
2022-11-17T18:46:48.339Z,98873.97
2022-11-17T18:49:15.384Z,98868.78
2022-11-17T18:51:42.363Z,98866.19
2022-11-17T18:54:11.523Z,98869.66
2022-11-17T18:56:38.511Z,98867.03
2022-11-17T18:59:11.583Z,98875.75
2022-11-17T19:01:40.799Z,98873.13
2022-11-17T19:04:07.627Z,98877.50
2022-11-17T19:06:34.695Z,98871.38
2022-11-17T19:09:01.529Z,98862.69
2022-11-17T19:11:30.875Z,98868.72
2022-11-17T19:13:58.835Z,98863.50
2022-11-17T19:16:26.888Z,98864.34
2022-11-17T19:18:55.603Z,98878.19
2022-11-17T19:21:26.015Z,98871.22
2022-11-17T19:23:54.619Z,98862.50
2022-11-17T19:26:29.149Z,98874.66
2022-11-17T19:29:03.091Z,98857.34
2022-11-17T19:31:30.251Z,98873.75
2022-11-17T19:33:57.952Z,98872.00
2022-11-17T19:36:27.651Z,98862.50
2022-11-17T19:38:56.252Z,98878.94
2022-11-17T19:41:35.183Z,98865.03
2022-11-17T19:44:05.110Z,98860.72
2022-11-17T19:46:34.472Z,98865.03
2022-11-17T19:49:01.567Z,98865.91
2022-11-17T19:51:31.979Z,98862.41
2022-11-17T19:54:02.075Z,98867.63
2022-11-17T19:56:29.300Z,98877.16
2022-11-17T19:58:59.212Z,98862.47
2022-11-17T20:01:29.540Z,98870.19
2022-11-17T20:03:58.270Z,98871.94
2022-11-17T20:06:28.717Z,98869.28
2022-11-17T20:08:57.570Z,98865.81
2022-11-17T20:11:27.005Z,98868.44
2022-11-17T20:13:55.278Z,98871.00
2022-11-17T20:16:27.123Z,98871.88
2022-11-17T20:18:56.243Z,98870.97
2022-11-17T20:21:24.208Z,98854.47
2022-11-17T20:23:51.360Z,98861.50
2022-11-17T20:26:20.936Z,98865.00
2022-11-17T20:28:48.386Z,98862.34
2022-11-17T20:31:19.461Z,98864.94
2022-11-17T20:33:49.418Z,98857.09
2022-11-17T20:36:18.899Z,98864.91
2022-11-17T20:41:28.830Z,98854.50
2022-11-17T20:44:00.015Z,98852.78
2022-11-17T20:46:29.908Z,98845.75
2022-11-17T20:48:56.671Z,98852.66
2022-11-17T20:56:46.936Z,98840.44
2022-11-17T20:59:20.013Z,98850.81
2022-11-17T21:01:53.186Z,98846.47
2022-11-17T21:04:21.966Z,98843.88
2022-11-17T21:06:48.795Z,98837.75
2022-11-17T21:09:16.124Z,98842.97
2022-11-17T21:12:07.243Z,98842.94
2022-11-17T21:14:42.340Z,98838.53
2022-11-17T21:17:31.337Z,98831.56
2022-11-17T21:19:58.494Z,98840.34
2022-11-17T21:22:25.465Z,98841.16
2022-11-17T21:24:52.210Z,98848.91
2022-11-17T21:27:24.398Z,98829.94
2022-11-17T21:29:53.490Z,98825.53
2022-11-17T21:32:20.680Z,98822.09
2022-11-17T21:34:49.891Z,98830.75
2022-11-17T21:37:16.783Z,98806.53
2022-11-17T21:39:45.830Z,98813.41
2022-11-17T21:42:17.978Z,98815.22
2022-11-17T21:44:47.807Z,98816.00
2022-11-17T21:47:16.181Z,98806.50
2022-11-17T21:49:44.689Z,98798.72
2022-11-17T21:52:11.643Z,98806.47
2022-11-17T21:54:38.346Z,98809.16
2022-11-17T21:57:05.115Z,98811.75
2022-11-17T21:59:32.042Z,98802.19
2022-11-17T22:02:00.473Z,98800.44
2022-11-17T22:04:27.832Z,98789.06
2022-11-17T22:07:07.547Z,98791.72
2022-11-17T22:09:36.229Z,98776.94
2022-11-17T22:12:06.777Z,98798.66
2022-11-17T22:14:38.305Z,98782.16
2022-11-17T22:17:05.000Z,98775.25
2022-11-17T22:19:34.988Z,98790.03
2022-11-17T22:22:02.038Z,98785.78
2022-11-17T22:24:30.293Z,98779.69
2022-11-17T22:26:58.911Z,98789.16
2022-11-17T22:29:29.478Z,98787.47
2022-11-17T22:31:56.264Z,98796.97
2022-11-17T22:34:23.056Z,98802.19
2022-11-17T22:36:49.873Z,98796.94
2022-11-17T22:39:17.065Z,98797.00
2022-11-17T22:41:43.917Z,98790.00
2022-11-17T22:44:17.789Z,98801.31
2022-11-17T22:46:46.276Z,98810.84
2022-11-17T22:49:13.684Z,98806.53
2022-11-17T22:51:59.347Z,98818.56
2022-11-17T22:57:10.364Z,98814.19
2022-11-17T22:59:45.143Z,98802.00
2022-11-17T23:02:12.072Z,98808.94
2022-11-17T23:04:40.137Z,98811.50
2022-11-17T23:07:08.062Z,98794.97
2022-11-17T23:09:36.131Z,98822.72
2022-11-17T23:12:05.016Z,98808.97
2022-11-17T23:14:31.633Z,98815.88
2022-11-17T23:16:58.285Z,98821.91
2022-11-17T23:19:25.154Z,98823.66
2022-11-17T23:21:54.991Z,98818.41
2022-11-17T23:24:21.812Z,98820.13
2022-11-17T23:26:48.717Z,98813.13
2022-11-17T23:29:15.933Z,98810.59
2022-11-17T23:31:44.695Z,98816.53
2022-11-17T23:34:11.541Z,98817.41
2022-11-17T23:36:38.535Z,98815.72
2022-11-17T23:39:05.580Z,98818.31
2022-11-17T23:41:34.199Z,98817.41
2022-11-17T23:44:01.574Z,98806.09
2022-11-17T23:46:30.031Z,98803.50
2022-11-17T23:48:57.758Z,98811.22
2022-11-17T23:51:27.447Z,98801.75
2022-11-17T23:53:56.722Z,98796.53
2022-11-17T23:56:25.462Z,98805.22
2022-11-17T23:58:53.412Z,98807.69
